Time;durP1;ratioP1;P1;durP2;ratioP2;P2;SDS_P1;SDS_P2;PMS_P1;PMS_P2;Temp;Humidity;BMP_temperature;BMP_pressure;BME280_temperature;BME280_humidity;BME280_pressure;Samples;Min_cycle;Max_cycle;Signal;HPM_P1;HPM_P2
2021/01/22 00:01:07;;;;;;;4.00;3.37;;;;;;;6.89;75.98;98109.09;5120693;28;20206;-71
2021/01/22 00:03:33;;;;;;;8.07;3.50;;;;;;;6.61;75.47;98095.75;5120273;28;20446;-71
2021/01/22 00:05:58;;;;;;;3.93;3.43;;;;;;;6.97;74.89;98093.38;5120245;28;20557;-71
2021/01/22 00:08:24;;;;;;;7.27;4.50;;;;;;;7.36;74.76;98083.13;5120762;27;20203;-71
2021/01/22 00:10:49;;;;;;;6.13;3.80;;;;;;;6.51;76.42;98062.25;5119791;28;20170;-71
2021/01/22 00:13:14;;;;;;;5.13;3.63;;;;;;;6.87;77.01;98046.97;5120106;28;20214;-72
2021/01/22 00:15:39;;;;;;;5.30;3.60;;;;;;;6.32;78.18;98060.84;5120094;28;20243;-71
2021/01/22 00:18:05;;;;;;;6.00;3.97;;;;;;;6.53;78.00;98055.31;5119990;28;20231;-72
2021/01/22 00:20:30;;;;;;;5.23;3.77;;;;;;;6.80;76.26;98058.28;5120119;28;20195;-71
2021/01/22 00:22:55;;;;;;;4.47;3.70;;;;;;;6.61;76.96;98042.25;5120072;28;20173;-71
2021/01/22 00:25:21;;;;;;;5.60;3.90;;;;;;;6.44;77.77;98039.09;5119943;27;20394;-71
2021/01/22 00:27:46;;;;;;;7.97;4.50;;;;;;;7.05;77.14;98011.22;5120252;28;20176;-70
2021/01/22 00:30:12;;;;;;;4.83;4.00;;;;;;;6.89;77.82;98027.06;5119713;28;20190;-71
2021/01/22 00:32:38;;;;;;;5.40;4.00;;;;;;;7.21;76.58;98011.75;5119761;28;20190;-70
2021/01/22 00:35:04;;;;;;;5.13;4.30;;;;;;;6.91;76.56;98019.25;5120224;28;20413;-70
2021/01/22 00:37:30;;;;;;;4.20;3.90;;;;;;;7.30;75.72;97996.00;5119683;28;20184;-71
2021/01/22 00:39:55;;;;;;;6.27;4.37;;;;;;;7.13;76.41;98000.69;5119320;28;20466;-71
2021/01/22 00:42:20;;;;;;;4.60;4.20;;;;;;;6.98;78.16;97961.28;5119201;28;20167;-72
2021/01/22 00:44:46;;;;;;;4.80;4.00;;;;;;;6.96;78.53;97969.97;5119544;28;20589;-71
2021/01/22 00:47:11;;;;;;;4.53;4.10;;;;;;;6.96;78.31;97988.94;5119538;28;20171;-71
2021/01/22 00:49:36;;;;;;;5.73;4.70;;;;;;;7.16;77.76;97991.13;5119784;28;20243;-71
2021/01/22 00:52:02;;;;;;;5.80;4.00;;;;;;;7.38;78.57;97981.13;5119247;28;20552;-71
2021/01/22 00:54:27;;;;;;;5.63;4.57;;;;;;;7.66;76.93;97966.69;5119256;28;20179;-71
2021/01/22 00:56:52;;;;;;;7.67;4.60;;;;;;;7.81;76.57;97948.19;5119690;28;20167;-71
2021/01/22 00:59:18;;;;;;;7.27;4.57;;;;;;;7.55;77.51;97941.00;5119216;28;20600;-71
2021/01/22 01:01:43;;;;;;;5.73;4.57;;;;;;;7.55;77.82;97947.06;5118875;28;20203;-71
2021/01/22 01:04:08;;;;;;;5.80;4.20;;;;;;;7.65;77.18;97934.75;5119652;28;20556;-71
2021/01/22 01:06:33;;;;;;;6.43;4.70;;;;;;;8.04;76.49;97941.59;5119092;28;20174;-72
2021/01/22 01:08:59;;;;;;;5.37;4.33;;;;;;;8.04;76.10;97939.00;5118959;28;20179;-71
2021/01/22 01:11:24;;;;;;;4.53;4.13;;;;;;;7.55;78.31;97922.88;5119335;28;20207;-72
2021/01/22 01:13:50;;;;;;;5.23;4.73;;;;;;;7.95;77.61;97926.25;5118771;28;20216;-71
2021/01/22 01:16:15;;;;;;;4.40;4.00;;;;;;;7.96;78.51;97922.78;5118884;28;20225;-71
2021/01/22 01:18:40;;;;;;;4.70;4.30;;;;;;;8.17;77.31;97904.06;5119379;28;20361;-71
2021/01/22 01:21:05;;;;;;;5.17;4.67;;;;;;;7.99;78.04;97902.78;5117822;28;20207;-72
2021/01/22 01:23:31;;;;;;;5.37;4.20;;;;;;;8.16;77.52;97902.34;5118820;28;20540;-70
2021/01/22 01:25:56;;;;;;;7.10;4.60;;;;;;;8.42;75.96;97904.22;5119139;28;20175;-71
2021/01/22 01:28:21;;;;;;;4.87;4.10;;;;;;;8.63;74.74;97881.19;5118850;28;20182;-70
2021/01/22 01:30:47;;;;;;;5.33;4.00;;;;;;;8.87;75.44;97878.78;5118617;28;20469;-70
2021/01/22 01:33:12;;;;;;;5.23;4.23;;;;;;;8.88;75.09;97883.09;5119089;28;20191;-71
2021/01/22 01:35:37;;;;;;;4.10;3.70;;;;;;;9.04;74.14;97907.72;5118598;28;20548;-71
2021/01/22 01:38:03;;;;;;;3.77;3.47;;;;;;;9.13;73.35;97892.75;5118474;28;20175;-70
2021/01/22 01:40:28;;;;;;;3.83;3.53;;;;;;;9.11;74.05;97898.00;5118987;28;20199;-71
2021/01/22 01:42:53;;;;;;;3.50;3.20;;;;;;;9.31;73.47;97883.50;5118604;28;20182;-72
2021/01/22 01:45:19;;;;;;;7.50;3.40;;;;;;;9.20;73.99;97878.66;5118806;28;20483;-71
2021/01/22 01:47:44;;;;;;;3.40;3.10;;;;;;;8.97;73.72;97874.16;5119673;28;20248;-71
2021/01/22 01:50:10;;;;;;;3.80;3.50;;;;;;;9.21;73.75;97869.97;5118502;28;20216;-71
2021/01/22 01:52:36;;;;;;;3.40;3.10;;;;;;;9.31;72.86;97871.38;5118976;28;20179;-71
2021/01/22 01:55:01;;;;;;;2.93;2.73;;;;;;;9.33;72.46;97866.97;5119183;28;20424;-71
2021/01/22 01:57:27;;;;;;;6.60;3.40;;;;;;;9.25;73.06;97862.03;5118505;28;20178;-70
2021/01/22 01:59:52;;;;;;;3.57;3.27;;;;;;;9.63;72.22;97853.88;5118377;28;20195;-71
2021/01/22 02:02:19;;;;;;;3.87;3.30;;;;;;;8.85;74.31;97858.06;5118972;28;20574;-71
2021/01/22 02:04:44;;;;;;;3.27;2.97;;;;;;;9.69;71.99;97832.88;5118419;28;20178;-71
2021/01/22 02:07:09;;;;;;;5.03;3.23;;;;;;;9.50;72.37;97831.75;5118319;28;20406;-71
2021/01/22 02:09:35;;;;;;;3.83;3.30;;;;;;;9.59;72.70;97840.13;5119212;28;20193;-70
2021/01/22 02:12:00;;;;;;;4.30;3.17;;;;;;;9.67;72.25;97828.63;5118091;28;20178;-71
2021/01/22 02:14:26;;;;;;;3.23;2.93;;;;;;;9.84;71.41;97825.47;5117642;28;20223;-71
2021/01/22 02:16:53;;;;;;;3.50;3.00;;;;;;;9.77;71.82;97814.41;5118471;28;20164;-70
2021/01/22 02:19:37;;;;;;;4.47;3.23;;;;;;;9.62;71.91;97807.97;5118362;28;20202;-72
2021/01/22 02:22:02;;;;;;;3.50;3.20;;;;;;;9.53;72.22;97803.09;5117918;28;20468;-71
2021/01/22 02:24:29;;;;;;;3.70;3.30;;;;;;;9.65;71.61;97792.25;5118323;28;20444;-71
2021/01/22 02:27:07;;;;;;;3.10;2.80;;;;;;;9.76;71.46;97795.31;5117612;28;20172;-71
2021/01/22 02:29:37;;;;;;;3.90;2.87;;;;;;;9.84;71.03;97799.44;5117935;28;20696;-70
2021/01/22 02:32:06;;;;;;;3.07;2.87;;;;;;;9.86;70.58;97811.47;5118772;28;20409;-70
2021/01/22 02:34:34;;;;;;;6.40;3.20;;;;;;;10.11;69.97;97801.06;5122325;28;20410;-71
2021/01/22 02:37:01;;;;;;;3.10;2.80;;;;;;;10.15;70.55;97787.91;5122033;28;20459;-71
2021/01/22 02:39:33;;;;;;;4.00;3.30;;;;;;;9.86;70.97;97795.00;5122237;28;20787;-70
2021/01/22 02:41:59;;;;;;;2.70;2.50;;;;;;;9.76;71.69;97789.28;5121798;28;20453;-71
2021/01/22 02:44:25;;;;;;;3.53;2.97;;;;;;;9.70;71.37;97779.94;5121850;28;20416;-71
2021/01/22 02:46:50;;;;;;;3.70;3.20;;;;;;;9.82;71.16;97785.63;5121937;28;20171;-71
2021/01/22 02:49:15;;;;;;;3.17;2.90;;;;;;;10.20;69.71;97768.66;5121793;28;20470;-70
2021/01/22 02:51:41;;;;;;;2.70;2.50;;;;;;;9.93;70.82;97767.88;5121468;28;20259;-70
2021/01/22 02:54:06;;;;;;;3.33;3.03;;;;;;;10.15;70.02;97773.16;5122247;27;20279;-70
2021/01/22 02:56:41;;;;;;;3.10;2.80;;;;;;;10.11;70.39;97790.63;5121689;28;20530;-71
2021/01/22 02:59:27;;;;;;;3.20;2.83;;;;;;;10.01;71.09;97771.06;5120680;28;20197;-71
2021/01/22 03:02:37;;;;;;;2.70;2.50;;;;;;;9.81;72.05;97752.69;5121391;27;20460;-71
2021/01/22 03:05:05;;;;;;;2.83;2.63;;;;;;;10.39;70.56;97737.59;5121622;28;20417;-71
2021/01/22 03:07:37;;;;;;;3.17;2.87;;;;;;;10.60;68.78;97732.44;5121453;28;20692;-71
2021/01/22 03:10:04;;;;;;;4.30;2.70;;;;;;;10.45;69.63;97726.91;5120512;28;20402;-71
2021/01/22 03:12:30;;;;;;;3.70;2.90;;;;;;;10.00;70.81;97730.31;5120585;28;20388;-71
2021/01/22 03:14:57;;;;;;;3.17;2.87;;;;;;;10.39;70.49;97727.16;5121041;28;20548;-72
2021/01/22 03:17:23;;;;;;;2.97;2.50;;;;;;;10.15;70.65;97713.28;5121654;28;20423;-71
2021/01/22 03:19:49;;;;;;;2.53;2.33;;;;;;;9.93;70.91;97728.84;5120308;28;20773;-71
2021/01/22 03:22:15;;;;;;;2.80;2.60;;;;;;;10.14;70.22;97710.75;5120958;28;20207;-71
2021/01/22 03:24:41;;;;;;;3.07;2.60;;;;;;;10.44;69.85;97714.81;5121747;28;20783;-71
2021/01/22 03:27:07;;;;;;;5.43;2.40;;;;;;;10.33;69.41;97705.69;5121047;28;20175;-71
2021/01/22 03:29:32;;;;;;;2.40;2.20;;;;;;;10.08;69.71;97710.06;5120740;28;20409;-71
2021/01/22 03:32:00;;;;;;;3.00;2.70;;;;;;;10.42;68.38;97714.03;5121448;28;20405;-72
2021/01/22 03:34:26;;;;;;;2.50;2.30;;;;;;;10.18;69.82;97717.53;5120851;28;20250;-70
2021/01/22 03:36:55;;;;;;;3.20;2.53;;;;;;;10.24;69.98;97705.13;5120083;28;20498;-71
2021/01/22 03:39:21;;;;;;;2.40;2.20;;;;;;;9.97;70.30;97708.75;5121109;28;20513;-70
2021/01/22 03:41:47;;;;;;;4.00;2.67;;;;;;;10.40;69.81;97695.00;5120564;28;20765;-70
2021/01/22 03:44:13;;;;;;;3.00;2.67;;;;;;;10.47;69.42;97697.38;5120026;28;20441;-71
2021/01/22 03:46:38;;;;;;;2.33;2.13;;;;;;;10.35;69.85;97698.69;5121038;28;20163;-71
2021/01/22 03:49:03;;;;;;;3.30;3.00;;;;;;;10.44;69.85;97693.13;5120572;28;20714;-72
2021/01/22 03:51:29;;;;;;;2.90;2.57;;;;;;;10.36;70.16;97687.38;5120414;28;20168;-71
2021/01/22 03:53:54;;;;;;;3.13;2.60;;;;;;;10.51;69.92;97691.13;5121207;28;20164;-71
2021/01/22 03:56:19;;;;;;;3.20;2.90;;;;;;;10.50;70.08;97674.66;5120555;28;20296;-71
2021/01/22 03:58:45;;;;;;;3.07;2.77;;;;;;;9.96;71.93;97676.69;5120391;28;20179;-71
2021/01/22 04:01:10;;;;;;;4.10;2.80;;;;;;;10.09;71.17;97672.72;5120879;28;20195;-72
2021/01/22 04:03:35;;;;;;;6.10;3.17;;;;;;;9.93;71.75;97676.78;5120546;28;20172;-72
2021/01/22 04:06:01;;;;;;;3.07;2.70;;;;;;;9.99;72.02;97665.31;5120376;28;20260;-71
2021/01/22 04:08:26;;;;;;;4.53;2.93;;;;;;;10.07;71.63;97678.91;5120746;28;20175;-70
2021/01/22 04:10:51;;;;;;;2.63;2.43;;;;;;;10.31;71.52;97668.44;5120089;28;20178;-71
2021/01/22 04:13:17;;;;;;;2.80;2.60;;;;;;;10.26;70.62;97679.03;5120282;28;20459;-70
2021/01/22 04:15:42;;;;;;;3.00;2.50;;;;;;;10.16;71.70;97675.09;5120025;28;20215;-70
2021/01/22 04:18:07;;;;;;;2.63;2.43;;;;;;;10.22;70.83;97691.31;5120099;28;20217;-71
2021/01/22 04:20:33;;;;;;;2.67;2.47;;;;;;;9.99;72.62;97727.78;5120116;27;20523;-70
2021/01/22 04:22:58;;;;;;;3.03;2.50;;;;;;;9.31;73.31;97809.00;5120117;27;20436;-71
2021/01/22 04:25:24;;;;;;;2.73;1.80;;;;;;;8.07;74.18;97824.75;5119792;28;20537;-71
2021/01/22 04:27:49;;;;;;;2.20;1.67;;;;;;;7.72;74.57;97837.75;5120365;28;20525;-71
2021/01/22 04:30:15;;;;;;;1.93;1.83;;;;;;;7.47;75.58;97832.34;5119872;27;20190;-70
2021/01/22 04:32:41;;;;;;;1.77;1.40;;;;;;;7.83;75.93;97854.78;5119784;28;20212;-71
2021/01/22 04:35:08;;;;;;;1.50;1.30;;;;;;;8.01;73.14;97841.34;5120278;28;20160;-71
2021/01/22 04:37:33;;;;;;;1.60;1.50;;;;;;;7.96;73.00;97871.75;5119036;28;20449;-71
2021/01/22 04:39:58;;;;;;;2.17;2.00;;;;;;;6.97;75.06;97887.06;5119718;28;20460;-71
2021/01/22 04:42:23;;;;;;;2.10;1.90;;;;;;;7.28;74.69;97891.53;5120092;28;20423;-70
2021/01/22 04:44:49;;;;;;;3.17;2.87;;;;;;;7.52;73.81;97918.63;5119556;28;20178;-71
2021/01/22 04:47:15;;;;;;;4.30;3.90;;;;;;;7.19;74.23;97941.81;5118907;28;20171;-70
2021/01/22 04:49:40;;;;;;;4.60;4.20;;;;;;;6.82;73.42;97952.09;5119822;28;20182;-71
2021/01/22 04:52:09;;;;;;;4.40;4.00;;;;;;;7.20;71.32;97966.00;5118550;28;20682;-71
2021/01/22 04:54:38;;;;;;;4.43;4.03;;;;;;;6.97;72.22;97967.34;5119417;28;20560;-70
2021/01/22 04:57:06;;;;;;;4.97;4.57;;;;;;;7.06;72.64;97969.75;5118893;28;20409;-70
2021/01/22 04:59:38;;;;;;;4.47;4.17;;;;;;;6.76;72.97;97993.66;5118208;28;20451;-70
2021/01/22 05:02:03;;;;;;;4.17;3.87;;;;;;;6.49;72.50;98003.66;5118447;28;20691;-70
2021/01/22 05:04:29;;;;;;;3.57;3.27;;;;;;;6.18;72.33;98007.63;5118413;28;20418;-69
2021/01/22 05:06:54;;;;;;;3.30;3.00;;;;;;;5.96;73.96;98020.00;5119213;28;20191;-70
2021/01/22 05:09:20;;;;;;;2.93;2.73;;;;;;;6.15;72.01;98028.34;5119420;28;20174;-70
2021/01/22 05:11:52;;;;;;;2.70;2.50;;;;;;;5.56;72.62;98043.84;5118881;28;20238;-70
2021/01/22 05:14:17;;;;;;;2.40;2.20;;;;;;;5.32;72.81;98050.22;5118875;28;20539;-71
2021/01/22 05:16:58;;;;;;;3.03;2.70;;;;;;;5.73;72.19;98061.72;5119332;28;20401;-71
2021/01/22 05:19:23;;;;;;;4.10;2.67;;;;;;;5.52;72.19;98074.06;5119029;28;20486;-71
2021/01/22 05:21:49;;;;;;;2.80;2.60;;;;;;;5.72;72.71;98068.63;5118652;28;20452;-71
2021/01/22 05:24:25;;;;;;;3.40;3.10;;;;;;;5.47;72.81;98083.59;5118213;28;20217;-71
2021/01/22 05:27:13;;;;;;;2.20;2.00;;;;;;;5.69;73.21;98091.91;5118967;28;20465;-71
2021/01/22 05:29:43;;;;;;;3.10;2.80;;;;;;;5.36;74.00;98098.41;5118829;28;20408;-70
2021/01/22 05:32:26;;;;;;;2.30;2.10;;;;;;;5.72;72.05;98107.41;5119000;28;20513;-70
2021/01/22 05:34:52;;;;;;;4.23;2.63;;;;;;;5.25;73.32;98116.59;5118630;28;20417;-70
2021/01/22 05:37:17;;;;;;;2.37;2.17;;;;;;;5.51;73.04;98129.19;5118759;28;20679;-70
2021/01/22 05:39:43;;;;;;;2.77;2.47;;;;;;;5.01;73.68;98144.38;5118522;28;20199;-71
2021/01/22 05:42:09;;;;;;;3.10;2.80;;;;;;;4.89;73.96;98136.75;5118561;28;20210;-70
2021/01/22 05:44:35;;;;;;;3.10;2.80;;;;;;;4.82;74.05;98150.59;5119052;28;20597;-70
2021/01/22 05:47:05;;;;;;;4.17;3.77;;;;;;;5.06;74.35;98173.59;5118386;28;20405;-70
2021/01/22 05:49:31;;;;;;;3.77;2.70;;;;;;;4.88;73.90;98181.50;5118579;28;20189;-71
2021/01/22 05:51:56;;;;;;;4.20;3.80;;;;;;;4.70;75.60;98187.69;5119143;28;20665;-70
2021/01/22 05:54:36;;;;;;;3.43;3.13;;;;;;;5.22;73.23;98182.06;5118502;28;20168;-70
2021/01/22 05:57:01;;;;;;;4.43;3.37;;;;;;;5.02;74.36;98181.38;5118602;28;20479;-70
2021/01/22 05:59:27;;;;;;;4.60;4.20;;;;;;;4.60;74.74;98199.81;5118146;28;20522;-70
2021/01/22 06:01:52;;;;;;;4.73;4.20;;;;;;;4.95;74.89;98209.00;5118335;28;20203;-70
2021/01/22 06:04:17;;;;;;;7.17;4.43;;;;;;;5.17;74.45;98206.22;5119072;28;20492;-70
2021/01/22 06:06:43;;;;;;;4.60;4.20;;;;;;;4.95;74.77;98205.53;5118579;28;20203;-69
2021/01/22 06:09:08;;;;;;;4.10;3.80;;;;;;;4.80;75.46;98207.38;5121752;28;20180;-70
2021/01/22 06:11:34;;;;;;;4.60;4.20;;;;;;;4.92;73.79;98209.00;5122731;28;20167;-70
2021/01/22 06:14:03;;;;;;;4.80;4.37;;;;;;;5.12;73.10;98220.91;5122344;28;20218;-71
2021/01/22 06:16:29;;;;;;;4.57;4.07;;;;;;;5.00;73.19;98224.44;5122533;28;20430;-70
2021/01/22 06:18:56;;;;;;;4.50;4.10;;;;;;;5.09;73.08;98220.91;5122926;28;20433;-70
2021/01/22 06:21:27;;;;;;;4.93;4.10;;;;;;;5.20;74.31;98226.84;5122059;28;20599;-70
2021/01/22 06:23:54;;;;;;;5.10;4.60;;;;;;;5.43;72.37;98239.53;5122249;28;20713;-71
2021/01/22 06:26:19;;;;;;;6.43;4.50;;;;;;;5.47;72.75;98245.53;5122851;28;20667;-71
2021/01/22 06:28:46;;;;;;;4.40;4.00;;;;;;;4.91;74.33;98264.09;5122259;28;20410;-69
2021/01/22 06:31:12;;;;;;;5.00;4.20;;;;;;;5.36;73.38;98274.91;5122127;28;20254;-71
2021/01/22 06:33:38;;;;;;;5.30;4.53;;;;;;;5.26;72.89;98278.44;5122714;28;20448;-71
2021/01/22 06:36:07;;;;;;;4.20;3.83;;;;;;;5.37;73.03;98281.81;5121956;28;20254;-70
2021/01/22 06:38:33;;;;;;;4.67;4.13;;;;;;;5.55;71.93;98292.84;5121940;27;20505;-70
2021/01/22 06:40:59;;;;;;;4.80;4.30;;;;;;;5.31;72.16;98291.34;5122134;27;20498;-71
2021/01/22 06:43:24;;;;;;;4.07;3.70;;;;;;;5.37;72.60;98289.56;5122199;28;20413;-71
2021/01/22 06:45:49;;;;;;;4.90;4.37;;;;;;;5.50;72.14;98312.69;5121936;28;20220;-71
2021/01/22 06:48:14;;;;;;;5.03;4.53;;;;;;;5.29;72.70;98308.56;5122142;28;20475;-71
2021/01/22 06:50:40;;;;;;;4.77;4.17;;;;;;;5.56;71.35;98294.53;5120699;28;20678;-70
2021/01/22 06:53:06;;;;;;;5.37;4.70;;;;;;;5.10;73.35;98297.53;5120914;28;20171;-71
2021/01/22 06:55:31;;;;;;;5.40;4.90;;;;;;;5.28;72.03;98317.19;5122224;28;20175;-71
2021/01/22 06:58:25;;;;;;;5.53;4.70;;;;;;;5.30;72.50;98323.19;5121002;28;20488;-70
2021/01/22 07:00:52;;;;;;;5.13;4.63;;;;;;;4.72;73.19;98323.59;5121453;28;20227;-71
2021/01/22 07:03:36;;;;;;;5.03;4.63;;;;;;;5.09;73.85;98335.41;5121565;28;20678;-71
2021/01/22 07:06:09;;;;;;;5.00;4.50;;;;;;;5.27;71.92;98337.00;5121501;28;20810;-71
2021/01/22 07:08:57;;;;;;;5.67;5.07;;;;;;;5.06;73.58;98343.19;5120703;28;20440;-71
2021/01/22 07:11:23;;;;;;;5.30;4.80;;;;;;;5.00;73.83;98356.97;5121255;28;20825;-71
2021/01/22 07:13:49;;;;;;;6.17;5.50;;;;;;;5.14;73.24;98361.19;5120405;28;20716;-71
2021/01/22 07:16:17;;;;;;;6.40;5.60;;;;;;;4.90;73.95;98373.41;5121288;28;20417;-70
2021/01/22 07:18:59;;;;;;;6.73;6.03;;;;;;;5.17;73.38;98376.69;5120608;28;20164;-71
2021/01/22 07:21:39;;;;;;;7.73;6.70;;;;;;;5.23;71.87;98392.13;5120482;28;20453;-71
2021/01/22 07:24:08;;;;;;;10.33;6.40;;;;;;;5.09;73.10;98387.06;5121203;28;20445;-71
2021/01/22 07:26:41;;;;;;;7.80;7.03;;;;;;;5.31;72.46;98389.50;5121111;28;20421;-72
2021/01/22 07:29:20;;;;;;;8.67;7.87;;;;;;;5.14;72.89;98395.66;5121001;28;20409;-71
2021/01/22 07:31:56;;;;;;;14.37;8.90;;;;;;;4.87;74.05;98394.94;5120155;28;20445;-70
2021/01/22 07:34:41;;;;;;;9.30;7.90;;;;;;;5.05;72.38;98403.44;5120897;28;20393;-70
2021/01/22 07:37:08;;;;;;;9.73;8.20;;;;;;;5.25;72.56;98408.50;5120777;28;20412;-71
2021/01/22 07:39:34;;;;;;;10.10;8.90;;;;;;;5.04;73.44;98412.91;5120605;28;20432;-71
2021/01/22 07:42:12;;;;;;;9.10;7.87;;;;;;;5.10;73.25;98404.28;5120661;28;20453;-70
2021/01/22 07:44:39;;;;;;;10.07;8.20;;;;;;;5.28;72.76;98405.88;5120017;28;20175;-71
2021/01/22 07:47:06;;;;;;;11.10;8.77;;;;;;;5.55;71.98;98406.56;5119674;28;20445;-71
2021/01/22 07:49:31;;;;;;;11.17;9.33;;;;;;;5.61;71.26;98411.66;5119551;28;20805;-69
2021/01/22 07:51:59;;;;;;;10.57;8.60;;;;;;;5.32;72.91;98417.91;5120882;28;20414;-71
2021/01/22 07:54:24;;;;;;;14.27;8.73;;;;;;;5.54;72.08;98422.91;5120444;28;20167;-70
2021/01/22 07:56:50;;;;;;;13.27;9.40;;;;;;;5.68;72.03;98430.56;5120412;28;20424;-71
2021/01/22 07:59:16;;;;;;;10.23;9.23;;;;;;;5.50;71.50;98432.41;5120651;28;20270;-71
2021/01/22 08:01:41;;;;;;;17.20;10.20;;;;;;;5.38;71.70;98441.09;5120084;28;20544;-71
2021/01/22 08:04:07;;;;;;;10.23;8.60;;;;;;;5.29;72.54;98438.59;5120462;28;20206;-69
2021/01/22 08:06:44;;;;;;;11.10;9.53;;;;;;;5.39;72.23;98440.25;5120048;28;20486;-71
2021/01/22 08:09:12;;;;;;;11.30;8.97;;;;;;;5.66;72.25;98440.91;5120254;28;20173;-70
2021/01/22 08:11:40;;;;;;;9.80;8.43;;;;;;;6.00;70.09;98453.59;5120359;28;20416;-70
2021/01/22 08:14:05;;;;;;;15.47;10.10;;;;;;;5.61;70.72;98437.50;5120303;27;20453;-71
2021/01/22 08:16:31;;;;;;;11.37;9.90;;;;;;;6.04;68.82;98437.19;5120167;28;20443;-71
2021/01/22 08:18:56;;;;;;;13.27;10.47;;;;;;;5.50;71.60;98444.50;5120428;28;20182;-71
2021/01/22 08:21:21;;;;;;;13.93;9.57;;;;;;;5.54;71.95;98449.63;5119196;28;20196;-70
2021/01/22 08:23:48;;;;;;;10.27;8.93;;;;;;;6.03;70.53;98445.81;5119909;28;20164;-70
2021/01/22 08:26:16;;;;;;;11.03;9.40;;;;;;;6.22;69.65;98450.81;5120432;28;20250;-70
2021/01/22 08:28:42;;;;;;;10.90;9.00;;;;;;;6.05;69.75;98457.00;5119909;28;20464;-70
2021/01/22 08:31:11;;;;;;;13.03;9.13;;;;;;;6.12;69.75;98451.78;5118741;28;20445;-70
2021/01/22 08:33:37;;;;;;;13.20;9.57;;;;;;;5.97;69.24;98453.59;5120047;28;20163;-71
2021/01/22 08:36:02;;;;;;;11.00;8.90;;;;;;;6.09;68.89;98450.09;5118969;28;20824;-71
2021/01/22 08:38:28;;;;;;;12.20;9.37;;;;;;;6.31;68.38;98458.47;5119422;28;20529;-71
2021/01/22 08:40:53;;;;;;;11.90;9.10;;;;;;;6.46;67.75;98456.63;5119798;28;20441;-71
2021/01/22 08:43:19;;;;;;;14.20;9.90;;;;;;;6.75;66.71;98456.28;5119475;28;20473;-70
2021/01/22 08:46:10;;;;;;;11.90;9.03;;;;;;;6.53;67.08;98455.69;5118853;28;20673;-71
2021/01/22 08:48:38;;;;;;;10.73;9.50;;;;;;;6.75;65.47;98464.03;5119537;28;20177;-71
2021/01/22 08:51:05;;;;;;;13.03;9.20;;;;;;;6.85;65.81;98472.59;5119306;28;20437;-71
2021/01/22 08:53:30;;;;;;;9.57;8.50;;;;;;;6.40;67.13;98475.66;5119386;28;20409;-71
2021/01/22 08:56:12;;;;;;;10.73;9.63;;;;;;;6.22;68.35;98479.28;5118518;28;20402;-71
2021/01/22 08:58:56;;;;;;;11.80;9.50;;;;;;;6.12;68.02;98482.84;5119159;28;20177;-71
2021/01/22 09:01:21;;;;;;;13.30;9.70;;;;;;;6.06;68.60;98478.53;5119046;28;20571;-70
2021/01/22 09:03:47;;;;;;;12.37;10.10;;;;;;;5.92;69.36;98491.56;5119139;28;20410;-71
2021/01/22 09:06:12;;;;;;;10.97;9.40;;;;;;;5.93;68.12;98490.69;5119217;28;20174;-72
2021/01/22 09:08:53;;;;;;;13.10;9.73;;;;;;;6.09;67.87;98504.41;5119740;28;20171;-72
2021/01/22 09:11:35;;;;;;;11.20;8.80;;;;;;;5.86;68.86;98508.00;5119179;28;20159;-71
2021/01/22 09:14:00;;;;;;;12.68;10.98;;;;;;;6.30;67.57;98510.25;5116891;28;20447;-73
2021/01/22 09:16:26;;;;;;;11.10;9.50;;;;;;;6.36;67.75;98512.78;5117928;28;20836;-73
2021/01/22 09:19:00;;;;;;;11.20;10.00;;;;;;;6.18;67.93;98516.38;5104266;28;20547;-71
2021/01/22 09:21:25;;;;;;;10.67;9.47;;;;;;;6.47;67.78;98520.44;5098862;28;20196;-72
2021/01/22 09:23:50;;;;;;;10.40;9.30;;;;;;;6.91;65.84;98512.22;5114573;28;20421;-72
2021/01/22 09:26:16;;;;;;;10.57;9.47;;;;;;;6.76;65.64;98522.75;5118854;28;20170;-72
2021/01/22 09:28:41;;;;;;;11.40;9.67;;;;;;;6.91;64.97;98519.13;5119273;28;20418;-70
2021/01/22 09:31:06;;;;;;;12.43;9.70;;;;;;;6.48;65.75;98525.63;5118328;28;20207;-73
2021/01/22 09:33:32;;;;;;;11.50;9.67;;;;;;;7.41;63.93;98524.56;5118880;28;20523;-72
2021/01/22 09:35:57;;;;;;;12.17;9.90;;;;;;;7.49;63.55;98524.47;5119181;28;20208;-71
2021/01/22 09:38:24;;;;;;;10.00;9.00;;;;;;;7.49;62.23;98534.84;5118538;28;20213;-72
2021/01/22 09:40:49;;;;;;;14.03;10.20;;;;;;;7.18;63.27;98535.22;5118310;28;20211;-72
2021/01/22 09:43:15;;;;;;;13.60;10.87;;;;;;;7.62;62.00;98525.13;5118402;28;20410;-73
2021/01/22 09:45:41;;;;;;;11.60;9.50;;;;;;;7.86;61.42;98529.09;5118429;28;20469;-72
2021/01/22 09:48:06;;;;;;;11.23;9.50;;;;;;;7.32;63.47;98529.84;5118614;28;20178;-73
2021/01/22 09:50:31;;;;;;;13.33;9.23;;;;;;;8.15;60.31;98536.44;5118924;28;20167;-72
2021/01/22 09:52:57;;;;;;;11.50;9.67;;;;;;;8.46;58.34;98524.72;5118524;28;20190;-72
2021/01/22 09:55:22;;;;;;;10.00;8.70;;;;;;;8.91;59.07;98533.41;5118524;28;20199;-72
2021/01/22 09:57:48;;;;;;;10.07;8.93;;;;;;;9.31;56.76;98536.09;5118750;28;20175;-72
2021/01/22 10:00:15;;;;;;;9.93;8.87;;;;;;;9.59;55.43;98525.97;5117954;28;20199;-72
2021/01/22 10:02:40;;;;;;;10.67;9.57;;;;;;;8.03;58.88;98552.22;5118402;28;20220;-71
2021/01/22 10:05:06;;;;;;;10.13;9.13;;;;;;;8.97;59.50;98536.78;5118760;28;20680;-73
2021/01/22 10:07:32;;;;;;;10.07;8.80;;;;;;;8.80;57.89;98552.69;5118319;28;20167;-74
2021/01/22 10:09:57;;;;;;;12.30;9.67;;;;;;;8.76;57.65;98552.72;5117585;28;20395;-73
2021/01/22 10:12:23;;;;;;;10.50;9.40;;;;;;;7.99;60.14;98566.13;5118656;28;20446;-75
2021/01/22 10:14:49;;;;;;;10.23;9.23;;;;;;;8.23;60.38;98572.66;5118205;28;20215;-74
2021/01/22 10:17:14;;;;;;;11.60;9.60;;;;;;;8.05;61.27;98582.44;5118402;28;20168;-75
2021/01/22 10:19:40;;;;;;;16.70;10.40;;;;;;;7.96;61.77;98574.81;5118764;28;20459;-74
2021/01/22 10:22:05;;;;;;;12.50;9.97;;;;;;;8.07;61.98;98580.69;5117391;28;20600;-75
2021/01/22 10:24:30;;;;;;;12.93;9.60;;;;;;;7.46;62.89;98586.72;5118635;28;20187;-74
2021/01/22 10:26:56;;;;;;;11.80;10.60;;;;;;;6.89;64.39;98591.66;5118505;28;20160;-73
2021/01/22 10:29:21;;;;;;;12.50;10.20;;;;;;;7.04;64.08;98589.78;5117946;28;20250;-74
2021/01/22 10:31:46;;;;;;;11.80;9.73;;;;;;;6.97;66.21;98603.66;5117977;28;20171;-73
2021/01/22 10:34:15;;;;;;;11.80;10.60;;;;;;;7.15;64.89;98598.31;5118448;28;20184;-73
2021/01/22 10:36:41;;;;;;;12.10;10.50;;;;;;;7.61;64.26;98590.88;5118060;28;20182;-73
2021/01/22 10:39:06;;;;;;;11.80;10.60;;;;;;;7.50;62.75;98594.44;5117114;28;20396;-73
2021/01/22 10:41:32;;;;;;;12.23;10.90;;;;;;;7.46;61.83;98602.28;5118083;28;20194;-75
2021/01/22 10:43:57;;;;;;;12.60;9.93;;;;;;;7.51;62.74;98605.66;5118111;28;20171;-75
2021/01/22 10:46:23;;;;;;;15.90;10.43;;;;;;;7.30;63.21;98615.41;5117697;28;20466;-73
2021/01/22 10:48:48;;;;;;;11.00;9.90;;;;;;;7.03;63.48;98619.16;5118670;28;20172;-75
2021/01/22 10:51:13;;;;;;;11.33;10.10;;;;;;;7.75;61.41;98609.66;5117659;28;20176;-75
2021/01/22 10:53:39;;;;;;;10.20;9.10;;;;;;;7.47;62.27;98615.22;5119359;28;20214;-75
2021/01/22 10:56:04;;;;;;;10.63;9.60;;;;;;;7.40;63.44;98614.44;5122080;28;20208;-75
2021/01/22 10:58:30;;;;;;;15.33;11.87;;;;;;;7.11;62.81;98621.69;5121425;28;20194;-75
2021/01/22 11:00:56;;;;;;;12.17;10.20;;;;;;;7.59;61.61;98629.78;5121373;28;20287;-74
2021/01/22 11:03:21;;;;;;;11.37;10.00;;;;;;;7.46;61.96;98625.63;5121985;28;20479;-74
2021/01/22 11:05:47;;;;;;;11.07;9.97;;;;;;;7.30;63.46;98620.59;5121305;28;20171;-72
2021/01/22 11:08:12;;;;;;;11.60;10.40;;;;;;;7.51;61.90;98624.69;5121436;27;20217;-72
2021/01/22 11:10:37;;;;;;;11.13;10.03;;;;;;;8.17;59.61;98627.25;5121619;28;20164;-73
2021/01/22 11:13:03;;;;;;;11.73;10.53;;;;;;;7.41;61.82;98639.50;5121040;28;20173;-72
2021/01/22 11:15:29;;;;;;;13.40;11.10;;;;;;;8.05;60.02;98633.47;5121048;28;20223;-72
2021/01/22 11:17:55;;;;;;;10.63;9.53;;;;;;;7.54;61.24;98632.41;5121588;28;20232;-72
2021/01/22 11:20:21;;;;;;;11.40;9.80;;;;;;;7.36;61.76;98641.28;5120886;28;20429;-72
2021/01/22 11:22:46;;;;;;;11.07;9.90;;;;;;;8.34;59.08;98624.41;5121006;28;20258;-72
2021/01/22 11:25:13;;;;;;;10.33;9.13;;;;;;;7.74;60.14;98634.75;5121471;28;20499;-72
2021/01/22 11:27:38;;;;;;;10.23;8.83;;;;;;;7.85;59.52;98633.78;5120915;28;20163;-71
2021/01/22 11:30:05;;;;;;;11.03;9.07;;;;;;;8.23;59.31;98641.00;5120621;28;20421;-72
2021/01/22 11:32:31;;;;;;;13.63;8.80;;;;;;;7.95;58.95;98640.53;5121514;28;20164;-71
2021/01/22 11:34:56;;;;;;;12.33;9.27;;;;;;;8.19;57.98;98643.69;5120924;28;20794;-72
2021/01/22 11:37:21;;;;;;;9.53;8.53;;;;;;;8.49;57.03;98650.16;5120062;28;20204;-70